Main page
METAR-TAF:

METAR-TAF

Airports :

Stornoway, Scotland

Stornoway Airport

latitude: 58-13N, longitude: 006-19W, elevation: 9 m

Current weather observation

The report was made 34 minutes ago, at 22:50 UTC
Wind 10 kt from the South
Temperature 13°C
Humidity 94%
Pressure 999 hPa
Visibility 10 km or more

METAR: EGPO 172250Z AUTO 19010KT 9999 SCT029/// 13/12 Q0999

Time: 00:24 (23:24 UTC)

Forecast

The report was made 3 hours and 27 minutes ago, at 19:57 UTC
Forecast valid from 17 at 21 UTC to 18 at 06 UTC
Wind 8 kt from the South
Visibility 10 km or more
Few clouds at a height of 2000 ft
Scattered clouds at a height of 3000 ft
Probability 40% :
Temporary
from 18 at 01 UTC to 18 at 06 UTC
Visibility: 7000 m
rain showers
Becoming
from 18 at 03 UTC to 18 at 06 UTC
Wind 10 kt from the West

TAF: EGPO 171957Z 1721/1806 17008KT 9999 FEW020 SCT030 PROB40 TEMPO 1801/1806 7000 SHRA BECMG 1803/1806 26010KT

Weather observations and forecasts of more than 4000 airports (METAR and TAF reports).

The available stations are represented by yellow and red dots on the map.

Hover mouse over dot to see the name of the station.

Then click to see weather observations and forecasts.

To change the map : click on the green buttons with a black cross to zoom in, on the green button with a dash to zoom out, or on the green arrows for adjacent maps.


METAR-TAF: